createdAt,value
2022-11-21T00:01:12.577Z,12.54
2022-11-21T00:03:39.322Z,12.55
2022-11-21T00:06:06.027Z,12.54
2022-11-21T00:08:32.748Z,12.56
2022-11-21T00:10:59.721Z,12.56
2022-11-21T00:13:26.569Z,12.54
2022-11-21T00:15:53.367Z,12.54
2022-11-21T00:18:20.142Z,12.53
2022-11-21T00:20:46.830Z,12.53
2022-11-21T00:23:13.733Z,12.52
2022-11-21T00:25:40.400Z,12.51
2022-11-21T00:28:07.161Z,12.53
2022-11-21T00:30:33.906Z,12.54
2022-11-21T00:33:00.858Z,12.57
2022-11-21T00:35:27.856Z,12.58
2022-11-21T00:37:54.711Z,12.57
2022-11-21T00:40:21.393Z,12.54
2022-11-21T00:42:48.136Z,12.53
2022-11-21T00:45:18.373Z,12.53
2022-11-21T00:47:48.050Z,12.53
2022-11-21T00:50:15.706Z,12.53
2022-11-21T00:52:42.402Z,12.53
2022-11-21T00:55:09.601Z,12.54
2022-11-21T00:57:36.405Z,12.54
2022-11-21T01:00:04.347Z,12.53
2022-11-21T01:02:32.423Z,12.52
2022-11-21T01:04:59.099Z,12.52
2022-11-21T01:07:25.848Z,12.52
2022-11-21T01:09:52.510Z,12.53
2022-11-21T01:12:19.261Z,12.53
2022-11-21T01:14:45.885Z,12.53
2022-11-21T01:17:12.566Z,12.52
2022-11-21T01:19:39.267Z,12.52
2022-11-21T01:22:06.005Z,12.52
2022-11-21T01:24:32.653Z,12.52
2022-11-21T01:26:59.393Z,12.49
2022-11-21T01:29:26.329Z,12.42
2022-11-21T01:31:53.106Z,12.37
2022-11-21T01:34:19.920Z,12.34
2022-11-21T01:36:46.617Z,12.38
2022-11-21T01:39:13.313Z,12.31
2022-11-21T01:41:42.605Z,12.24
2022-11-21T01:44:27.213Z,12.21
2022-11-21T01:46:54.228Z,12.21
2022-11-21T01:49:31.186Z,12.22
2022-11-21T01:52:12.227Z,12.26
2022-11-21T01:54:44.729Z,12.24
2022-11-21T01:57:43.542Z,12.23
2022-11-21T02:00:16.250Z,12.25
2022-11-21T02:02:46.651Z,12.25
2022-11-21T02:05:20.736Z,12.27
2022-11-21T02:07:49.067Z,12.26
2022-11-21T02:10:16.345Z,12.27
2022-11-21T02:12:48.235Z,12.26
2022-11-21T02:15:15.238Z,12.24
2022-11-21T02:17:41.881Z,12.24
2022-11-21T02:20:11.642Z,12.22
2022-11-21T02:22:57.319Z,12.24
2022-11-21T02:25:29.769Z,12.22
2022-11-21T02:28:02.017Z,12.23
2022-11-21T02:30:29.913Z,12.25
2022-11-21T02:32:56.646Z,12.27
2022-11-21T02:35:23.865Z,12.28
2022-11-21T02:38:04.795Z,12.28
2022-11-21T02:40:41.829Z,12.29
2022-11-21T02:43:14.430Z,12.28
2022-11-21T02:45:43.412Z,12.27
2022-11-21T02:48:14.674Z,12.27
2022-11-21T02:50:44.576Z,12.26
2022-11-21T02:53:13.942Z,12.25
2022-11-21T02:55:41.221Z,12.25
2022-11-21T02:58:08.052Z,12.23
2022-11-21T03:00:38.175Z,12.22
2022-11-21T03:03:04.958Z,12.24
2022-11-21T03:05:31.770Z,12.22
2022-11-21T03:07:58.728Z,12.22
2022-11-21T03:10:25.438Z,12.22
2022-11-21T03:13:01.236Z,12.22
2022-11-21T03:15:33.450Z,12.20
2022-11-21T03:18:03.765Z,12.20
2022-11-21T03:20:31.889Z,12.20
2022-11-21T03:22:58.777Z,12.20
2022-11-21T03:25:25.556Z,12.18
2022-11-21T03:27:53.531Z,12.19
2022-11-21T03:30:21.794Z,12.19
2022-11-21T03:32:48.610Z,12.18
2022-11-21T03:35:15.647Z,12.18
2022-11-21T03:37:42.378Z,12.18
2022-11-21T03:40:09.722Z,12.18
2022-11-21T03:42:36.381Z,12.17
2022-11-21T03:45:03.390Z,12.17
2022-11-21T03:47:30.121Z,12.17
2022-11-21T03:49:56.836Z,12.16
2022-11-21T03:52:23.551Z,12.15
2022-11-21T03:54:50.279Z,12.14
2022-11-21T03:57:16.909Z,12.14
2022-11-21T03:59:43.625Z,12.13
2022-11-21T04:02:10.310Z,12.13
2022-11-21T04:04:37.043Z,12.12
2022-11-21T04:07:03.765Z,12.11
2022-11-21T04:09:30.582Z,12.10
2022-11-21T04:11:57.207Z,12.09
2022-11-21T04:14:23.946Z,12.06
2022-11-21T04:16:50.717Z,12.06
2022-11-21T04:19:17.433Z,12.05
2022-11-21T04:21:44.105Z,12.04
2022-11-21T04:24:11.017Z,12.05
2022-11-21T04:26:37.666Z,12.05
2022-11-21T04:29:04.486Z,12.03
2022-11-21T04:31:31.257Z,12.03
2022-11-21T04:33:57.950Z,12.02
2022-11-21T04:36:24.707Z,12.01
2022-11-21T04:38:51.554Z,12.00
2022-11-21T04:41:18.218Z,12.00
2022-11-21T04:43:44.907Z,12.01
2022-11-21T04:46:11.676Z,12.00
2022-11-21T04:48:38.490Z,12.01
2022-11-21T04:51:05.165Z,12.02
2022-11-21T04:53:31.900Z,12.02
2022-11-21T04:55:58.625Z,12.00
2022-11-21T04:58:25.450Z,12.02
2022-11-21T05:00:53.327Z,12.00
2022-11-21T05:03:20.047Z,12.00
2022-11-21T05:05:46.796Z,11.99
2022-11-21T05:08:13.530Z,11.98
2022-11-21T05:10:58.850Z,11.99
2022-11-21T05:13:25.568Z,11.98
2022-11-21T05:16:01.316Z,11.98
2022-11-21T05:18:28.527Z,12.00
2022-11-21T05:20:55.164Z,11.99
2022-11-21T05:23:21.966Z,11.97
2022-11-21T05:25:48.655Z,11.99
2022-11-21T05:28:15.381Z,11.98
2022-11-21T05:30:42.671Z,11.98
2022-11-21T05:33:09.461Z,11.97
2022-11-21T05:35:42.872Z,11.95
2022-11-21T05:38:10.311Z,11.96
2022-11-21T05:40:37.039Z,11.96
2022-11-21T05:43:22.423Z,11.94
2022-11-21T05:45:53.054Z,11.93
2022-11-21T05:48:19.665Z,12.01
2022-11-21T05:50:49.764Z,11.95
2022-11-21T05:53:17.089Z,11.93
2022-11-21T05:55:44.162Z,11.91
2022-11-21T05:58:11.132Z,11.90
2022-11-21T06:00:38.287Z,11.91
2022-11-21T06:03:24.587Z,11.88
2022-11-21T06:05:51.452Z,11.88
2022-11-21T06:08:18.415Z,11.88
2022-11-21T06:10:45.138Z,11.89
2022-11-21T06:13:23.783Z,11.88
2022-11-21T06:15:54.228Z,11.88
2022-11-21T06:18:21.261Z,11.87
2022-11-21T06:20:47.964Z,11.87
2022-11-21T06:23:15.028Z,11.87
2022-11-21T06:25:42.309Z,11.86
2022-11-21T06:28:09.138Z,11.86
2022-11-21T06:30:36.103Z,11.86
2022-11-21T06:33:07.109Z,11.87
2022-11-21T06:35:37.857Z,11.87
2022-11-21T06:38:04.685Z,11.86
2022-11-21T06:40:31.406Z,11.68
2022-11-21T06:42:58.241Z,11.41
2022-11-21T06:45:24.880Z,11.11
2022-11-21T06:47:51.609Z,10.88
2022-11-21T06:50:18.508Z,10.65
2022-11-21T06:52:45.258Z,10.47
2022-11-21T06:55:11.929Z,10.40
2022-11-21T06:57:38.678Z,10.35
2022-11-21T07:00:06.199Z,10.28
2022-11-21T07:02:33.176Z,10.11
2022-11-21T07:04:59.895Z,10.02
2022-11-21T07:07:26.646Z,9.92
2022-11-21T07:09:53.340Z,9.88
2022-11-21T07:12:38.697Z,9.82
2022-11-21T07:15:05.886Z,9.76
2022-11-21T07:17:32.540Z,9.76
2022-11-21T07:19:59.257Z,9.71
2022-11-21T07:22:25.889Z,9.65
2022-11-21T07:24:52.615Z,9.55
2022-11-21T07:27:19.519Z,9.58
2022-11-21T07:29:46.348Z,9.59
2022-11-21T07:32:13.264Z,9.63
2022-11-21T07:34:39.947Z,9.61
2022-11-21T07:37:06.674Z,9.58
2022-11-21T07:39:33.355Z,9.59
2022-11-21T07:42:00.369Z,9.65
2022-11-21T07:44:27.120Z,9.75
2022-11-21T07:46:55.463Z,9.77
2022-11-21T07:49:22.698Z,9.74
2022-11-21T07:51:49.819Z,9.82
2022-11-21T07:54:16.506Z,9.91
2022-11-21T07:56:43.298Z,9.85
2022-11-21T07:59:10.113Z,9.88
2022-11-21T08:01:39.229Z,9.95
2022-11-21T08:04:09.448Z,10.00
2022-11-21T08:06:36.066Z,10.03
2022-11-21T08:09:02.790Z,10.03
2022-11-21T08:11:30.955Z,10.06
2022-11-21T08:13:58.750Z,10.12
2022-11-21T08:16:28.037Z,10.11
2022-11-21T08:18:54.974Z,10.08
2022-11-21T08:21:21.641Z,10.10
2022-11-21T08:23:48.867Z,10.16
2022-11-21T08:26:16.069Z,10.16
2022-11-21T08:28:42.858Z,10.20
2022-11-21T08:31:10.354Z,10.26
2022-11-21T08:33:37.220Z,10.22
2022-11-21T08:36:07.173Z,10.21
2022-11-21T08:38:34.068Z,10.27
2022-11-21T08:41:19.432Z,10.28
2022-11-21T08:43:46.265Z,10.25
2022-11-21T08:46:13.450Z,10.23
2022-11-21T08:48:40.613Z,10.29
2022-11-21T08:51:07.262Z,10.37
2022-11-21T08:53:34.090Z,10.47
2022-11-21T08:56:04.171Z,10.59
2022-11-21T08:58:31.330Z,10.75
2022-11-21T09:00:59.335Z,10.81
2022-11-21T09:03:30.849Z,10.92
2022-11-21T09:05:58.728Z,11.01
2022-11-21T09:08:25.883Z,10.93
2022-11-21T09:10:52.810Z,10.95
2022-11-21T09:13:19.889Z,11.00
2022-11-21T09:16:05.200Z,11.02
2022-11-21T09:18:32.050Z,11.02
2022-11-21T09:20:59.020Z,10.94
2022-11-21T09:23:25.933Z,11.02
2022-11-21T09:25:52.585Z,11.09
2022-11-21T09:28:19.321Z,11.16
2022-11-21T09:30:46.384Z,11.24
2022-11-21T09:33:19.727Z,11.28
2022-11-21T09:35:46.591Z,11.23
2022-11-21T09:38:13.285Z,11.27
2022-11-21T09:40:44.711Z,11.41
2022-11-21T09:43:36.388Z,11.63
2022-11-21T09:46:11.169Z,11.77
2022-11-21T09:48:56.153Z,11.81
2022-11-21T09:51:23.730Z,11.83
2022-11-21T09:53:55.378Z,11.82
2022-11-21T09:56:23.756Z,11.87
2022-11-21T09:58:56.447Z,11.83
2022-11-21T10:01:23.383Z,11.85
2022-11-21T10:03:52.399Z,11.92
2022-11-21T10:06:31.951Z,11.92
2022-11-21T10:09:17.017Z,11.99
2022-11-21T10:12:10.471Z,12.07
2022-11-21T10:14:48.274Z,12.17
2022-11-21T10:17:36.925Z,12.29
2022-11-21T10:20:32.733Z,12.33
2022-11-21T10:23:19.615Z,12.40
2022-11-21T10:25:56.146Z,12.43
2022-11-21T10:28:29.476Z,12.56
2022-11-21T10:30:58.215Z,12.54
2022-11-21T10:33:32.487Z,12.57
2022-11-21T10:36:23.514Z,12.52
2022-11-21T10:38:50.497Z,12.52
2022-11-21T10:41:24.897Z,12.46
2022-11-21T10:44:19.226Z,12.43
2022-11-21T10:47:00.106Z,12.55
2022-11-21T10:49:29.662Z,12.70
2022-11-21T10:52:10.027Z,12.92
2022-11-21T10:55:05.560Z,13.10
2022-11-21T10:57:38.817Z,13.28
2022-11-21T11:00:15.514Z,13.40
2022-11-21T11:03:05.147Z,13.42
2022-11-21T11:05:39.210Z,13.41
2022-11-21T11:08:14.276Z,13.44
2022-11-21T11:10:43.009Z,13.46
2022-11-21T11:13:46.440Z,13.46
2022-11-21T11:16:19.226Z,13.36
2022-11-21T11:18:47.150Z,13.39
2022-11-21T11:21:26.470Z,13.47
2022-11-21T11:23:54.407Z,13.60
2022-11-21T11:26:29.293Z,13.52
2022-11-21T11:29:08.962Z,13.43
2022-11-21T11:32:04.436Z,13.35
2022-11-21T11:34:42.445Z,13.05
2022-11-21T11:37:27.466Z,12.84
2022-11-21T11:40:12.984Z,12.80
2022-11-21T11:43:24.140Z,12.93
2022-11-21T11:46:18.801Z,13.05
2022-11-21T11:49:17.332Z,13.11
2022-11-21T11:51:43.133Z,13.01
2022-11-21T11:54:17.772Z,12.79
2022-11-21T11:56:47.271Z,12.72
2022-11-21T11:59:27.498Z,12.66
2022-11-21T12:02:12.809Z,12.78
2022-11-21T12:04:52.946Z,12.93
2022-11-21T12:08:38.922Z,13.00
2022-11-21T12:10:29.858Z,13.13
2022-11-21T12:13:03.804Z,13.24
2022-11-21T12:15:50.854Z,13.27
2022-11-21T12:18:20.722Z,13.20
2022-11-21T12:21:11.254Z,13.08
2022-11-21T12:23:53.864Z,13.11
2022-11-21T12:26:20.637Z,13.16
2022-11-21T12:29:15.230Z,13.07
2022-11-21T12:32:04.889Z,13.01
2022-11-21T12:35:02.583Z,13.10
2022-11-21T12:37:32.465Z,13.25
2022-11-21T12:40:23.710Z,13.30
2022-11-21T12:42:50.546Z,13.30
2022-11-21T12:45:31.631Z,13.31
2022-11-21T12:48:26.074Z,13.36
2022-11-21T12:51:30.007Z,13.40
2022-11-21T12:54:31.316Z,13.38
2022-11-21T12:57:00.217Z,13.39
2022-11-21T12:59:27.542Z,13.39
2022-11-21T13:02:07.197Z,13.39
2022-11-21T13:04:36.590Z,13.36
2022-11-21T13:07:04.289Z,13.33
2022-11-21T13:09:36.986Z,13.36
2022-11-21T13:12:14.067Z,13.37
2022-11-21T13:14:48.248Z,13.36
2022-11-21T13:17:28.551Z,13.32
2022-11-21T13:20:02.535Z,13.25
2022-11-21T13:22:35.377Z,13.21
2022-11-21T13:25:03.469Z,13.16
2022-11-21T13:27:39.367Z,13.15
2022-11-21T13:30:09.636Z,13.14
2022-11-21T13:32:43.939Z,13.17
2022-11-21T13:35:19.743Z,13.16
2022-11-21T13:37:55.351Z,13.13
2022-11-21T13:40:31.982Z,13.11
2022-11-21T13:43:32.472Z,13.16
2022-11-21T13:45:59.952Z,13.17
2022-11-21T13:48:38.797Z,13.22
2022-11-21T13:51:27.019Z,13.23
2022-11-21T13:54:09.040Z,13.25
2022-11-21T13:56:37.727Z,13.26
2022-11-21T13:59:12.202Z,13.25
2022-11-21T14:02:05.398Z,13.26
2022-11-21T14:05:14.193Z,13.21
2022-11-21T14:07:41.824Z,13.16
2022-11-21T14:10:31.444Z,12.95
2022-11-21T14:12:58.877Z,12.69
2022-11-21T14:16:06.964Z,12.61
2022-11-21T14:18:34.117Z,12.62
2022-11-21T14:21:01.903Z,12.63
2022-11-21T14:23:31.201Z,12.61
2022-11-21T14:26:04.183Z,12.58
2022-11-21T14:28:33.629Z,12.58
2022-11-21T14:31:06.729Z,12.52
2022-11-21T14:33:37.987Z,12.43
2022-11-21T14:36:16.238Z,12.33
2022-11-21T14:39:13.997Z,12.22
2022-11-21T14:41:39.475Z,12.14
2022-11-21T14:44:14.970Z,11.99
2022-11-21T14:46:42.541Z,11.82
2022-11-21T14:49:21.669Z,11.70
2022-11-21T14:51:51.885Z,11.70
2022-11-21T14:54:23.737Z,11.71
2022-11-21T14:56:58.138Z,11.63
2022-11-21T14:59:27.474Z,11.57
2022-11-21T15:02:11.341Z,11.49
2022-11-21T15:04:38.190Z,11.44
2022-11-21T15:07:05.224Z,11.41
2022-11-21T15:12:24.950Z,11.31
2022-11-21T15:15:04.593Z,11.26
2022-11-21T15:17:31.514Z,11.20
2022-11-21T15:20:11.485Z,11.19
2022-11-21T15:22:41.269Z,11.18
2022-11-21T15:25:15.701Z,11.13
2022-11-21T15:27:43.005Z,11.08
2022-11-21T15:30:09.638Z,11.00
2022-11-21T15:33:04.534Z,10.97
2022-11-21T15:35:53.790Z,10.88
2022-11-21T15:38:22.681Z,10.82
2022-11-21T15:41:15.622Z,10.74
2022-11-21T15:43:48.164Z,10.62
2022-11-21T15:46:22.231Z,10.52
2022-11-21T15:48:51.205Z,10.48
2022-11-21T15:51:27.192Z,10.41
2022-11-21T15:54:06.071Z,10.37
2022-11-21T15:56:33.291Z,10.36
2022-11-21T15:59:00.085Z,10.30
2022-11-21T16:01:31.108Z,10.20
2022-11-21T16:03:59.929Z,10.14
2022-11-21T16:06:27.030Z,10.12
2022-11-21T16:08:54.334Z,10.13
2022-11-21T16:11:34.745Z,10.12
2022-11-21T16:14:03.046Z,10.12
2022-11-21T16:16:34.523Z,10.11
2022-11-21T16:19:01.452Z,10.18
2022-11-21T16:21:28.218Z,10.29
2022-11-21T16:23:55.305Z,10.39
2022-11-21T16:26:27.798Z,10.50
2022-11-21T16:28:55.639Z,10.62
2022-11-21T16:31:25.430Z,10.69
2022-11-21T16:33:52.410Z,10.78
2022-11-21T16:36:21.085Z,10.86
2022-11-21T16:38:48.195Z,10.93
2022-11-21T16:41:17.162Z,10.99
2022-11-21T16:43:49.767Z,11.06
2022-11-21T16:46:17.980Z,11.12
2022-11-21T16:48:44.928Z,11.18
2022-11-21T16:51:14.015Z,11.22
2022-11-21T16:53:41.766Z,11.28
2022-11-21T16:56:09.284Z,11.33
2022-11-21T16:58:37.255Z,11.37
2022-11-21T17:01:15.663Z,11.41
2022-11-21T17:03:44.552Z,11.44
2022-11-21T17:06:12.394Z,11.47
2022-11-21T17:08:39.176Z,11.51
2022-11-21T17:11:19.446Z,11.53
2022-11-21T17:13:47.703Z,11.57
2022-11-21T17:16:16.524Z,11.60
2022-11-21T17:18:44.703Z,11.62
2022-11-21T17:21:13.722Z,11.64
2022-11-21T17:23:43.220Z,11.66
2022-11-21T17:26:12.467Z,11.68
2022-11-21T17:28:45.034Z,11.72
2022-11-21T17:31:14.510Z,11.73
2022-11-21T17:33:42.056Z,11.75
2022-11-21T17:36:13.689Z,11.76
2022-11-21T17:38:41.061Z,11.78
2022-11-21T17:41:10.400Z,11.79
2022-11-21T17:43:37.438Z,11.82
2022-11-21T17:46:10.384Z,11.83
2022-11-21T17:48:37.765Z,11.85
2022-11-21T17:51:09.318Z,11.87
2022-11-21T17:53:41.786Z,11.87
2022-11-21T17:56:12.554Z,11.88
2022-11-21T17:58:39.602Z,11.90
2022-11-21T18:01:08.007Z,11.92
2022-11-21T18:03:35.722Z,11.93
2022-11-21T18:06:05.029Z,11.93
2022-11-21T18:08:32.918Z,11.95
2022-11-21T18:10:59.834Z,11.96
2022-11-21T18:13:28.809Z,11.96
2022-11-21T18:15:56.389Z,11.97
2022-11-21T18:18:23.202Z,11.98
2022-11-21T18:20:51.386Z,12.00
2022-11-21T18:23:18.235Z,12.01
2022-11-21T18:25:44.937Z,12.02
2022-11-21T18:28:12.052Z,12.03
2022-11-21T18:30:38.741Z,12.03
2022-11-21T18:33:05.677Z,12.05
2022-11-21T18:35:32.356Z,12.05
2022-11-21T18:37:59.129Z,12.07
2022-11-21T18:40:25.791Z,12.06
2022-11-21T18:42:52.711Z,12.07
2022-11-21T18:45:19.381Z,12.07
2022-11-21T18:47:47.965Z,12.09
2022-11-21T18:50:15.891Z,12.09
2022-11-21T18:52:46.666Z,12.10
2022-11-21T18:55:13.932Z,12.10
2022-11-21T18:57:40.645Z,12.10
2022-11-21T19:00:08.085Z,12.11
2022-11-21T19:02:34.882Z,12.11
2022-11-21T19:05:01.618Z,12.12
2022-11-21T19:07:28.420Z,12.12
2022-11-21T19:09:55.674Z,12.12
2022-11-21T19:12:28.374Z,12.13
2022-11-21T19:14:55.734Z,12.12
2022-11-21T19:17:22.616Z,12.13
2022-11-21T19:19:49.619Z,12.14
2022-11-21T19:22:16.946Z,12.14
2022-11-21T19:24:43.616Z,12.15
2022-11-21T19:27:10.423Z,12.15
2022-11-21T19:29:37.333Z,12.15
2022-11-21T19:32:04.390Z,12.15
2022-11-21T19:34:31.095Z,12.16
2022-11-21T19:36:57.830Z,12.17
2022-11-21T19:39:24.465Z,12.17
2022-11-21T19:41:51.207Z,12.18
2022-11-21T19:44:17.992Z,12.19
2022-11-21T19:46:44.734Z,12.19
2022-11-21T19:49:12.292Z,12.21
2022-11-21T19:51:41.188Z,12.23
2022-11-21T19:54:09.189Z,12.25
2022-11-21T19:56:36.448Z,12.27
2022-11-21T19:59:03.472Z,12.27
2022-11-21T20:01:32.136Z,12.29
2022-11-21T20:04:01.514Z,12.30
2022-11-21T20:06:34.096Z,12.31
2022-11-21T20:09:06.359Z,12.32
2022-11-21T20:11:33.909Z,12.33
2022-11-21T20:14:01.350Z,12.35
2022-11-21T20:16:42.869Z,12.35
2022-11-21T20:19:12.394Z,12.37
2022-11-21T20:21:39.467Z,12.37
2022-11-21T20:24:07.103Z,12.38
2022-11-21T20:26:34.601Z,12.39
2022-11-21T20:29:01.362Z,12.40
2022-11-21T20:31:30.197Z,12.42
2022-11-21T20:34:00.801Z,12.41
2022-11-21T20:36:32.380Z,12.42
2022-11-21T20:39:06.383Z,12.44
2022-11-21T20:41:34.940Z,12.45
2022-11-21T20:46:53.850Z,12.45
2022-11-21T20:49:20.525Z,12.46
2022-11-21T20:53:26.418Z,12.45
2022-11-21T20:54:35.229Z,12.46
2022-11-21T20:57:01.947Z,12.47
2022-11-21T20:59:29.130Z,12.48
2022-11-21T21:01:56.238Z,12.46
2022-11-21T21:04:23.091Z,12.46
2022-11-21T21:06:49.784Z,12.47
2022-11-21T21:09:16.605Z,12.48
2022-11-21T21:11:52.608Z,12.48
2022-11-21T21:14:21.216Z,12.51
2022-11-21T21:16:48.087Z,12.51
2022-11-21T21:19:15.124Z,12.52
2022-11-21T21:21:41.889Z,12.52
2022-11-21T21:24:10.952Z,12.55
2022-11-21T21:26:42.524Z,12.58
2022-11-21T21:29:11.558Z,12.58
2022-11-21T21:31:38.496Z,12.60
2022-11-21T21:34:05.285Z,12.61
2022-11-21T21:36:32.562Z,12.63
2022-11-21T21:39:00.547Z,12.63
2022-11-21T21:41:28.930Z,12.65
2022-11-21T21:43:57.297Z,12.65
2022-11-21T21:46:25.891Z,12.66
2022-11-21T21:48:57.067Z,12.65
2022-11-21T21:51:30.898Z,12.66
2022-11-21T21:53:59.167Z,12.66
2022-11-21T21:56:27.863Z,12.66
2022-11-21T21:58:56.615Z,12.67
2022-11-21T22:01:28.415Z,12.67
2022-11-21T22:03:57.116Z,12.67
2022-11-21T22:06:24.074Z,12.67
2022-11-21T22:08:51.021Z,12.67
2022-11-21T22:11:20.367Z,12.67
2022-11-21T22:13:51.073Z,12.67
2022-11-21T22:16:17.679Z,12.76
2022-11-21T22:18:44.467Z,12.67
2022-11-21T22:21:24.214Z,12.65
2022-11-21T22:24:22.964Z,12.66
2022-11-21T22:26:38.508Z,12.66
2022-11-21T22:29:05.274Z,12.66
2022-11-21T22:31:32.407Z,12.67
2022-11-21T22:33:59.723Z,12.66
2022-11-21T22:36:26.635Z,12.67
2022-11-21T22:38:54.736Z,12.68
2022-11-21T22:41:26.085Z,12.67
2022-11-21T22:43:57.051Z,12.67
2022-11-21T22:46:25.238Z,12.66
2022-11-21T22:48:51.917Z,12.67
2022-11-21T22:51:21.194Z,12.67
2022-11-21T22:53:48.686Z,12.68
2022-11-21T22:56:17.527Z,12.69
2022-11-21T22:58:44.586Z,12.69
2022-11-21T23:01:13.294Z,12.68
2022-11-21T23:03:40.406Z,12.69
2022-11-21T23:06:09.910Z,12.70
2022-11-21T23:08:37.390Z,12.69
2022-11-21T23:11:07.985Z,12.69
2022-11-21T23:13:36.086Z,12.68
2022-11-21T23:16:03.850Z,12.68
2022-11-21T23:18:31.357Z,12.67
2022-11-21T23:20:58.092Z,12.67
2022-11-21T23:23:25.258Z,12.68
2022-11-21T23:25:52.188Z,12.67
2022-11-21T23:28:19.492Z,12.67
2022-11-21T23:30:48.498Z,12.65
2022-11-21T23:33:15.925Z,12.66
2022-11-21T23:35:43.593Z,12.65
2022-11-21T23:38:11.365Z,12.65
2022-11-21T23:40:38.218Z,12.65
2022-11-21T23:43:05.402Z,12.65
2022-11-21T23:45:32.677Z,12.65
2022-11-21T23:47:59.341Z,12.65
2022-11-21T23:50:26.239Z,12.65
2022-11-21T23:52:52.934Z,12.63
2022-11-21T23:55:19.845Z,12.64
2022-11-21T23:57:48.274Z,12.64
